CheckWX is a tool to help pilots better visualize weather data.  It is not intended as a substitute for an official pre-flight weather briefing.

12:20:36 UTC

KMSY TAF
Louis Armstrong New Orleans International Airport
New Orleans, Louisiana, USA
KMSY 191121Z 1912/2018 00000KT P6SM SCT005 SCT250 FM191400 VRB03KT P6SM FEW250 FM192100 29006KT P6SM SKC FM200100 VRB03KT P6SM SKC TEMPO 2011/2013 4SM BR

Nov-19@
12:00 UTC

Nov-19 @ 12:00 UTC

Nov-19@
14:00 UTC

Nov-19 @ 14:00 UTC

KMSY 191121Z 1912/2018 00000KT P6SM SCT005 SCT250
Cloud Levels
  • Scattered at 500' AGL
  • Scattered at 25,000' AGL

Nov-19@
14:00 UTC

Nov-19 @ 14:00 UTC

Nov-19@
21:00 UTC

Nov-19 @ 21:00 UTC

FM191400 VRB03KT P6SM FEW250

From

From Standard forecast or significant change

Wind
  • Variable at 3 KTS
Cloud Levels
  • Few at 25,000' AGL

Nov-19@
21:00 UTC

Nov-19 @ 21:00 UTC

Nov-20@
01:00 UTC

Nov-20 @ 01:00 UTC

FM192100 29006KT P6SM SKC

From

From Standard forecast or significant change

Wind
  • 290° at 6 KTS
Cloud Levels
  • Clear skies

Nov-20@
01:00 UTC

Nov-20 @ 01:00 UTC

Nov-20@
18:00 UTC

Nov-20 @ 18:00 UTC

FM200100 VRB03KT P6SM SKC

From

From Standard forecast or significant change

Wind
  • Variable at 3 KTS
Cloud Levels
  • Clear skies

Nov-20@
11:00 UTC

Nov-20 @ 11:00 UTC

Nov-20@
13:00 UTC

Nov-20 @ 13:00 UTC

TEMPO 2011/2013 4SM BR

Temporary

Temporary Changes expected for less than half the time period

Conditions
Mist